Time;durP1;ratioP1;P1;durP2;ratioP2;P2;SDS_P1;SDS_P2;PMS_P1;PMS_P2;Temp;Humidity;BMP_temperature;BMP_pressure;BME280_temperature;BME280_humidity;BME280_pressure;Samples;Min_cycle;Max_cycle;Signal;HPM_P1;HPM_P2
2021/03/28 06:00:43;;;;;;;0.40;0.40;;;;;;;;;;5087470;27;20360;-62
2021/03/28 06:03:09;;;;;;;0.10;0.10;;;;;;;;;;5084849;28;20086;-62
2021/03/28 06:05:51;;;;;;;2.75;0.85;;;;;;;;;;5085494;28;20024;-62
2021/03/28 06:08:20;;;;;;;0.10;0.10;;;;;;;;;;5084168;28;20044;-62
2021/03/28 06:10:49;;;;;;;0.65;0.40;;;;;;;;;;5083632;28;20466;-62
2021/03/28 06:13:30;;;;;;;0.10;0.10;;;;;;;;;;5083706;28;20123;-59
2021/03/28 06:16:08;;;;;;;0.10;0.10;;;;;;;;;;5083759;28;20034;-61
2021/03/28 06:18:53;;;;;;;0.10;0.10;;;;;;;;;;5069072;28;20042;-62
2021/03/28 06:21:28;;;;;;;0.10;0.10;;;;;;;;;;5084309;28;20028;-62
2021/03/28 06:23:58;;;;;;;9.35;2.72;;;;;;;;;;5083560;28;20024;-62
2021/03/28 06:26:53;;;;;;;0.10;0.10;;;;;;;;;;5084236;28;20025;-62
2021/03/28 06:29:31;;;;;;;2.10;2.00;;;;;;;;;;5082978;28;20119;-61
2021/03/28 06:32:16;;;;;;;0.10;0.10;;;;;;;;;;5083177;28;20390;-61
2021/03/28 06:34:51;;;;;;;1.20;0.37;;;;;;;;;;5084243;28;20029;-62
2021/03/28 06:37:53;;;;;;;0.25;0.25;;;;;;;;;;5083240;28;20124;-59
2021/03/28 06:40:38;;;;;;;0.10;0.10;;;;;;;;;;5045254;28;20041;-61
2021/03/28 06:43:07;;;;;;;0.10;0.10;;;;;;;;;;5045246;28;20151;-62
2021/03/28 06:45:48;;;;;;;0.25;0.25;;;;;;;;;;5042356;28;20757;-62
2021/03/28 06:48:33;;;;;;;0.10;0.10;;;;;;;;;;5035113;28;20056;-62
2021/03/28 06:51:18;;;;;;;20.67;0.93;;;;;;;;;;5040421;28;20032;-62
2021/03/28 06:54:02;;;;;;;0.10;0.10;;;;;;;;;;5047367;28;20060;-59
2021/03/28 06:56:46;;;;;;;1.38;0.50;;;;;;;;;;5048225;28;20493;-62
2021/03/28 06:59:12;;;;;;;0.10;0.10;;;;;;;;;;5043376;28;20056;-62
2021/03/28 07:01:58;;;;;;;0.38;0.38;;;;;;;;;;5028125;28;20115;-61
2021/03/28 07:04:43;;;;;;;0.10;0.10;;;;;;;;;;5029540;28;20550;-62
2021/03/28 07:07:38;;;;;;;0.20;0.20;;;;;;;;;;5027930;28;20034;-62
2021/03/28 07:10:23;;;;;;;0.10;0.10;;;;;;;;;;5007716;28;20045;-62
2021/03/28 07:12:55;;;;;;;0.10;0.10;;;;;;;;;;5027793;28;20033;-62
2021/03/28 07:15:21;;;;;;;0.10;0.10;;;;;;;;;;5066933;28;20037;-61
2021/03/28 07:18:06;;;;;;;0.50;0.50;;;;;;;;;;5072174;28;20024;-62
2021/03/28 07:20:38;;;;;;;1.40;1.23;;;;;;;;;;5070888;28;20047;-62
2021/03/28 07:23:23;;;;;;;0.38;0.22;;;;;;;;;;5069265;28;20090;-61
2021/03/28 07:25:55;;;;;;;1.03;0.20;;;;;;;;;;5069034;28;20052;-62
2021/03/28 07:28:51;;;;;;;2.70;1.55;;;;;;;;;;5068870;28;20314;-61
2021/03/28 07:31:43;;;;;;;0.10;0.10;;;;;;;;;;5068888;28;20119;-63
2021/03/28 07:34:18;;;;;;;0.30;0.20;;;;;;;;;;5027157;28;20049;-62
2021/03/28 07:37:09;;;;;;;3.30;0.82;;;;;;;;;;5021104;28;20044;-65
2021/03/28 07:39:54;;;;;;;0.10;0.10;;;;;;;;;;4961230;28;20101;-63
2021/03/28 07:42:36;;;;;;;0.10;0.10;;;;;;;;;;4960078;28;20026;-65
2021/03/28 07:45:26;;;;;;;4.57;0.40;;;;;;;;;;4971192;28;20452;-63
2021/03/28 07:47:57;;;;;;;16.45;1.20;;;;;;;;;;4959895;28;20055;-64
2021/03/28 07:50:42;;;;;;;0.20;0.13;;;;;;;;;;4959645;28;20055;-63
2021/03/28 07:53:26;;;;;;;0.30;0.30;;;;;;;;;;4960925;28;20583;-62
2021/03/28 07:56:25;;;;;;;2.30;0.30;;;;;;;;;;4959401;28;20221;-65
2021/03/28 07:58:51;;;;;;;0.30;0.30;;;;;;;;;;4912970;29;20040;-64
2021/03/28 08:01:17;;;;;;;1.75;0.32;;;;;;;;;;4913653;29;20048;-62
2021/03/28 08:03:44;;;;;;;0.20;0.20;;;;;;;;;;4914356;29;20044;-60
2021/03/28 08:06:28;;;;;;;0.38;0.30;;;;;;;;;;4914167;29;20561;-63
2021/03/28 08:09:09;;;;;;;2.38;0.50;;;;;;;;;;4913471;29;20056;-64
2021/03/28 08:11:35;;;;;;;2.67;0.32;;;;;;;;;;4928405;29;20092;-67
2021/03/28 08:14:11;;;;;;;0.20;0.17;;;;;;;;;;4925409;29;20032;-62
2021/03/28 08:16:54;;;;;;;2.65;0.40;;;;;;;;;;4969850;28;20037;-62
2021/03/28 08:19:20;;;;;;;0.57;0.28;;;;;;;;;;5000235;28;20103;-62
2021/03/28 08:21:58;;;;;;;1.08;0.30;;;;;;;;;;5006193;28;20042;-61
2021/03/28 08:24:37;;;;;;;0.10;0.10;;;;;;;;;;4991093;28;20092;-62
2021/03/28 08:27:13;;;;;;;2.80;0.63;;;;;;;;;;5005960;28;20033;-62
2021/03/28 08:29:42;;;;;;;0.30;0.30;;;;;;;;;;4999477;28;20038;-61
2021/03/28 08:32:11;;;;;;;1.27;0.35;;;;;;;;;;5000266;28;20608;-62
2021/03/28 08:34:50;;;;;;;2.30;0.30;;;;;;;;;;5040243;28;20075;-63
2021/03/28 08:37:31;;;;;;;0.50;0.30;;;;;;;;;;5067749;28;20029;-62
2021/03/28 08:40:03;;;;;;;0.75;0.68;;;;;;;;;;5066211;28;20032;-63
2021/03/28 08:42:49;;;;;;;3.50;0.68;;;;;;;;;;5052750;28;20044;-63
2021/03/28 08:45:23;;;;;;;3.47;0.22;;;;;;;;;;5069102;28;20116;-61
2021/03/28 08:48:08;;;;;;;0.52;0.32;;;;;;;;;;5059964;28;20090;-64
2021/03/28 08:50:37;;;;;;;5.78;3.30;;;;;;;;;;5070684;28;20025;-63
2021/03/28 08:53:17;;;;;;;0.10;0.10;;;;;;;;;;5068266;28;20063;-61
2021/03/28 08:56:03;;;;;;;0.77;0.40;;;;;;;;;;5065715;28;20025;-63
2021/03/28 08:58:32;;;;;;;0.10;0.10;;;;;;;;;;5064956;28;20477;-64
2021/03/28 09:01:05;;;;;;;0.73;0.63;;;;;;;;;;5064501;28;20028;-64
2021/03/28 09:03:50;;;;;;;19.02;0.85;;;;;;;;;;5062618;28;20148;-62
2021/03/28 09:06:35;;;;;;;9.57;1.02;;;;;;;;;;5066821;28;20525;-63
2021/03/28 09:09:04;;;;;;;1.40;0.60;;;;;;;;;;5051514;28;20029;-63
2021/03/28 09:11:59;;;;;;;0.30;0.30;;;;;;;;;;5049793;28;20025;-61
2021/03/28 09:14:28;;;;;;;4.03;1.45;;;;;;;;;;5064309;28;20419;-63
2021/03/28 09:16:59;;;;;;;0.45;0.38;;;;;;;;;;5065619;28;20021;-63
2021/03/28 09:19:25;;;;;;;5.85;0.73;;;;;;;;;;5066715;28;20033;-62
2021/03/28 09:21:58;;;;;;;1.10;0.20;;;;;;;;;;5065807;28;20040;-63
2021/03/28 09:24:24;;;;;;;10.02;0.22;;;;;;;;;;5068889;28;20043;-63
2021/03/28 09:27:09;;;;;;;0.10;0.10;;;;;;;;;;5070616;28;20099;-63
2021/03/28 09:29:41;;;;;;;1.63;0.63;;;;;;;;;;5065832;28;20260;-64
2021/03/28 09:32:14;;;;;;;2.78;1.08;;;;;;;;;;5068518;28;20037;-63
2021/03/28 09:34:48;;;;;;;0.80;0.68;;;;;;;;;;5066520;28;20028;-63
2021/03/28 09:37:37;;;;;;;1.02;0.30;;;;;;;;;;5066987;28;20048;-64
2021/03/28 09:40:04;;;;;;;1.17;0.90;;;;;;;;;;5027255;28;20569;-62
2021/03/28 09:42:48;;;;;;;0.50;0.50;;;;;;;;;;5028044;28;20029;-63
2021/03/28 09:45:33;;;;;;;1.20;0.82;;;;;;;;;;5027995;28;20041;-62
2021/03/28 09:48:04;;;;;;;0.20;0.20;;;;;;;;;;5024954;28;20033;-63
2021/03/28 09:50:38;;;;;;;2.40;0.93;;;;;;;;;;5028629;28;20079;-60
2021/03/28 09:53:07;;;;;;;3.55;0.47;;;;;;;;;;5025437;28;20038;-63
2021/03/28 09:55:39;;;;;;;2.30;0.28;;;;;;;;;;5025211;28;20029;-63
2021/03/28 09:58:34;;;;;;;0.10;0.10;;;;;;;;;;5026717;28;20410;-63
2021/03/28 10:01:15;;;;;;;4.68;0.68;;;;;;;;;;5027862;28;20055;-63
2021/03/28 10:03:50;;;;;;;0.70;0.60;;;;;;;;;;5021993;28;20415;-63
2021/03/28 10:06:20;;;;;;;1.42;0.60;;;;;;;;;;5028015;28;20491;-61
2021/03/28 10:08:50;;;;;;;3.10;1.85;;;;;;;;;;5025312;28;20108;-61
2021/03/28 10:11:22;;;;;;;4.22;1.73;;;;;;;;;;5027221;28;20076;-63
2021/03/28 10:14:00;;;;;;;0.57;0.43;;;;;;;;;;5027587;28;20052;-63
2021/03/28 10:16:30;;;;;;;1.33;0.82;;;;;;;;;;5037812;28;20106;-63
2021/03/28 10:19:13;;;;;;;1.85;0.68;;;;;;;;;;5064239;28;20107;-61
2021/03/28 10:21:45;;;;;;;4.90;0.60;;;;;;;;;;5067139;28;20048;-62
2021/03/28 10:24:21;;;;;;;1.90;0.40;;;;;;;;;;5068499;28;20119;-62
2021/03/28 10:27:01;;;;;;;6.65;1.70;;;;;;;;;;5069414;28;20406;-63
2021/03/28 10:29:39;;;;;;;4.57;1.08;;;;;;;;;;5067463;28;20045;-62
2021/03/28 10:32:08;;;;;;;5.65;1.42;;;;;;;;;;5064359;28;20056;-63
2021/03/28 10:34:50;;;;;;;0.20;0.20;;;;;;;;;;5066833;28;20036;-63
2021/03/28 10:37:22;;;;;;;1.73;0.22;;;;;;;;;;5070518;28;20025;-62
2021/03/28 10:39:54;;;;;;;0.20;0.20;;;;;;;;;;5070194;28;20048;-62
2021/03/28 10:42:23;;;;;;;0.10;0.10;;;;;;;;;;5071299;28;20040;-63
2021/03/28 10:44:52;;;;;;;0.30;0.30;;;;;;;;;;5072541;28;20027;-62
2021/03/28 10:47:19;;;;;;;0.25;0.20;;;;;;;;;;5072266;28;20035;-62
2021/03/28 10:50:03;;;;;;;0.40;0.30;;;;;;;;;;5068964;28;20494;-63
2021/03/28 10:52:42;;;;;;;1.67;0.35;;;;;;;;;;5069564;28;20146;-63
2021/03/28 10:55:27;;;;;;;0.98;0.52;;;;;;;;;;5071311;28;20493;-63
2021/03/28 10:58:16;;;;;;;1.20;0.32;;;;;;;;;;5065749;28;20035;-63
2021/03/28 11:01:01;;;;;;;0.10;0.10;;;;;;;;;;5055811;28;20029;-63
2021/03/28 11:03:48;;;;;;;0.10;0.10;;;;;;;;;;5056803;28;20031;-63
2021/03/28 11:06:32;;;;;;;0.15;0.10;;;;;;;;;;5071516;28;20040;-63
2021/03/28 11:09:17;;;;;;;0.50;0.50;;;;;;;;;;5068478;28;20127;-63
2021/03/28 11:11:50;;;;;;;0.00;0.00;;;;;;;;;;5067836;28;20031;-65
2021/03/28 11:14:19;;;;;;;0.30;0.30;;;;;;;;;;5064744;28;20485;-62
2021/03/28 11:17:03;;;;;;;0.20;0.10;;;;;;;;;;5055682;28;20061;-64
2021/03/28 11:19:48;;;;;;;0.20;0.20;;;;;;;;;;5063675;28;20103;-64
2021/03/28 11:22:33;;;;;;;0.10;0.10;;;;;;;;;;5059826;28;20033;-65
2021/03/28 11:25:18;;;;;;;11.25;1.60;;;;;;;;;;5062809;28;20052;-64
2021/03/28 11:27:50;;;;;;;0.00;0.00;;;;;;;;;;5055737;28;20386;-65
2021/03/28 11:30:26;;;;;;;2.63;0.63;;;;;;;;;;5069478;28;20036;-61
2021/03/28 11:32:56;;;;;;;7.15;0.55;;;;;;;;;;5053370;28;20029;-65
2021/03/28 11:35:26;;;;;;;0.30;0.28;;;;;;;;;;5058224;28;20053;-66
2021/03/28 11:37:52;;;;;;;0.20;0.10;;;;;;;;;;5060432;28;20558;-65
2021/03/28 11:40:18;;;;;;;10.15;0.32;;;;;;;;;;5063311;28;20020;-65
2021/03/28 11:42:53;;;;;;;0.75;0.10;;;;;;;;;;5069642;28;20032;-65
2021/03/28 11:45:34;;;;;;;0.10;0.10;;;;;;;;;;5068694;28;20071;-65
2021/03/28 11:48:02;;;;;;;1.45;1.38;;;;;;;;;;5056837;28;20049;-65
2021/03/28 11:50:34;;;;;;;0.10;0.10;;;;;;;;;;5062265;28;20079;-65
2021/03/28 11:53:07;;;;;;;1.17;0.30;;;;;;;;;;5055803;28;20029;-65
2021/03/28 11:55:42;;;;;;;2.72;1.45;;;;;;;;;;5060750;28;20024;-64
2021/03/28 11:58:12;;;;;;;1.50;0.35;;;;;;;;;;5067374;28;20085;-65
2021/03/28 12:00:45;;;;;;;4.03;0.30;;;;;;;;;;5068934;28;20481;-65
2021/03/28 12:03:21;;;;;;;8.10;0.55;;;;;;;;;;5063907;28;20021;-64
2021/03/28 12:06:03;;;;;;;0.43;0.20;;;;;;;;;;5061139;28;20029;-62
2021/03/28 12:08:47;;;;;;;0.28;0.15;;;;;;;;;;5055800;28;20494;-65
2021/03/28 12:11:29;;;;;;;0.40;0.40;;;;;;;;;;5052902;28;20082;-65
2021/03/28 12:13:55;;;;;;;1.85;0.95;;;;;;;;;;5057556;28;20036;-65
2021/03/28 12:16:21;;;;;;;0.15;0.15;;;;;;;;;;5056554;28;20035;-65
2021/03/28 12:18:50;;;;;;;1.38;0.60;;;;;;;;;;5055289;28;20032;-65
2021/03/28 12:21:33;;;;;;;0.55;0.30;;;;;;;;;;5049212;28;20048;-65
2021/03/28 12:24:10;;;;;;;0.45;0.28;;;;;;;;;;5049612;28;20576;-64
2021/03/28 12:26:36;;;;;;;1.55;0.20;;;;;;;;;;5054291;28;20048;-64
2021/03/28 12:29:04;;;;;;;2.58;0.70;;;;;;;;;;5061120;28;20039;-65
2021/03/28 12:31:33;;;;;;;0.65;0.65;;;;;;;;;;5056282;28;20021;-65
2021/03/28 12:34:08;;;;;;;0.10;0.10;;;;;;;;;;5052198;28;20028;-65
2021/03/28 12:36:46;;;;;;;0.38;0.30;;;;;;;;;;5050432;28;20040;-63
2021/03/28 12:39:15;;;;;;;1.17;1.13;;;;;;;;;;5052420;28;20032;-64
2021/03/28 12:42:01;;;;;;;0.00;0.00;;;;;;;;;;5068075;28;20047;-65
2021/03/28 12:44:30;;;;;;;0.80;0.60;;;;;;;;;;5069719;28;20035;-66
2021/03/28 12:46:59;;;;;;;8.43;0.75;;;;;;;;;;5064913;28;20115;-67
2021/03/28 12:49:29;;;;;;;0.10;0.10;;;;;;;;;;5064397;28;20040;-65
2021/03/28 12:52:13;;;;;;;0.20;0.20;;;;;;;;;;5060154;28;20028;-66
2021/03/28 12:54:52;;;;;;;0.00;0.00;;;;;;;;;;5057709;28;20033;-66
2021/03/28 12:57:27;;;;;;;0.38;0.22;;;;;;;;;;5066771;28;20028;-62
2021/03/28 12:59:58;;;;;;;4.93;1.23;;;;;;;;;;5053907;28;20106;-64
2021/03/28 13:02:29;;;;;;;0.28;0.28;;;;;;;;;;5069541;28;20040;-65
2021/03/28 13:04:58;;;;;;;0.20;0.20;;;;;;;;;;5063489;28;20032;-64
2021/03/28 13:07:51;;;;;;;6.93;0.63;;;;;;;;;;5067934;28;20457;-64
2021/03/28 13:10:22;;;;;;;4.80;1.15;;;;;;;;;;5009633;28;20042;-64
2021/03/28 13:12:56;;;;;;;0.35;0.17;;;;;;;;;;5008503;28;20037;-65
2021/03/28 13:15:38;;;;;;;0.10;0.10;;;;;;;;;;5008046;28;20030;-65
2021/03/28 13:18:16;;;;;;;3.38;0.30;;;;;;;;;;5008564;28;20038;-65
2021/03/28 13:20:44;;;;;;;0.10;0.10;;;;;;;;;;5007864;28;20534;-64
2021/03/28 13:23:19;;;;;;;1.00;0.10;;;;;;;;;;5008053;28;20077;-63
2021/03/28 13:25:45;;;;;;;0.20;0.20;;;;;;;;;;5007659;28;20030;-63
2021/03/28 13:28:11;;;;;;;3.17;0.52;;;;;;;;;;5005378;28;20052;-63
2021/03/28 13:30:41;;;;;;;3.80;0.50;;;;;;;;;;5008144;28;20030;-64
2021/03/28 13:33:22;;;;;;;3.15;0.57;;;;;;;;;;5008182;28;20100;-64
2021/03/28 13:35:49;;;;;;;3.72;0.98;;;;;;;;;;5008097;28;20030;-65
2021/03/28 13:38:25;;;;;;;0.60;0.40;;;;;;;;;;5008137;28;20030;-63
2021/03/28 13:40:55;;;;;;;0.50;0.28;;;;;;;;;;5007356;28;20046;-64
2021/03/28 13:43:21;;;;;;;0.55;0.38;;;;;;;;;;5006978;28;20553;-65
2021/03/28 13:45:49;;;;;;;5.57;1.55;;;;;;;;;;5007795;28;20097;-65
2021/03/28 13:48:15;;;;;;;2.08;0.30;;;;;;;;;;5068361;28;20049;-65
2021/03/28 13:50:46;;;;;;;2.45;1.48;;;;;;;;;;5069823;28;20024;-65
2021/03/28 13:53:31;;;;;;;0.52;0.40;;;;;;;;;;5069194;28;20020;-65
2021/03/28 13:56:10;;;;;;;0.95;0.55;;;;;;;;;;5068294;28;20047;-64
2021/03/28 13:58:40;;;;;;;30.33;0.95;;;;;;;;;;5067236;28;20041;-64
2021/03/28 14:01:15;;;;;;;2.72;0.75;;;;;;;;;;5068717;28;20063;-64
2021/03/28 14:03:42;;;;;;;0.90;0.50;;;;;;;;;;5069160;28;20053;-64
2021/03/28 14:06:27;;;;;;;0.10;0.10;;;;;;;;;;5069332;28;20036;-65
2021/03/28 14:09:13;;;;;;;0.10;0.10;;;;;;;;;;5067621;28;20040;-63
2021/03/28 14:11:42;;;;;;;0.10;0.10;;;;;;;;;;5060952;28;20047;-64
2021/03/28 14:14:27;;;;;;;0.10;0.10;;;;;;;;;;5072976;28;20513;-64
2021/03/28 14:16:55;;;;;;;4.17;1.10;;;;;;;;;;5070536;28;20120;-65
2021/03/28 14:19:24;;;;;;;3.92;0.63;;;;;;;;;;5072435;28;20028;-65
2021/03/28 14:21:51;;;;;;;0.35;0.35;;;;;;;;;;5073230;28;20032;-65
2021/03/28 14:24:20;;;;;;;4.30;0.40;;;;;;;;;;5072874;28;24458;-63
2021/03/28 14:26:52;;;;;;;4.28;0.50;;;;;;;;;;5058336;28;20119;-67
2021/03/28 14:29:25;;;;;;;0.52;0.17;;;;;;;;;;5070159;28;20040;-67
2021/03/28 14:32:00;;;;;;;0.22;0.22;;;;;;;;;;5072219;28;20048;-65
2021/03/28 14:34:26;;;;;;;0.65;0.40;;;;;;;;;;5070376;28;20406;-65
2021/03/28 14:37:01;;;;;;;0.28;0.25;;;;;;;;;;5072633;28;20130;-67
2021/03/28 14:39:40;;;;;;;0.55;0.55;;;;;;;;;;5071014;28;20032;-66
2021/03/28 14:42:16;;;;;;;0.20;0.10;;;;;;;;;;5071395;28;20043;-66
2021/03/28 14:44:48;;;;;;;1.95;0.38;;;;;;;;;;5073318;28;20074;-66
2021/03/28 14:47:21;;;;;;;1.15;0.65;;;;;;;;;;5071851;28;20021;-66
2021/03/28 14:49:56;;;;;;;0.32;0.32;;;;;;;;;;5072120;28;20786;-66
2021/03/28 14:52:34;;;;;;;0.10;0.10;;;;;;;;;;5068995;28;20017;-66
2021/03/28 14:55:09;;;;;;;0.17;0.17;;;;;;;;;;5071353;28;20040;-64
2021/03/28 14:57:35;;;;;;;;;;;;;;;;;;5068153;28;20033;-67
2021/03/28 15:00:08;;;;;;;0.75;0.28;;;;;;;;;;5068252;28;19970;-66
2021/03/28 15:02:40;;;;;;;0.15;0.08;;;;;;;;;;5062215;28;20845;-67
2021/03/28 15:05:07;;;;;;;2.08;0.10;;;;;;;;;;5059333;28;20120;-66
2021/03/28 15:07:42;;;;;;;0.13;0.13;;;;;;;;;;5058806;28;20097;-67
2021/03/28 15:10:09;;;;;;;;;;;;;;;;;;5067226;28;20076;-67
2021/03/28 15:12:46;;;;;;;0.10;0.10;;;;;;;;;;5069032;28;19909;-67
2021/03/28 15:15:12;;;;;;;1.35;1.20;;;;;;;;;;5056837;28;20028;-67
2021/03/28 15:17:44;;;;;;;2.38;1.85;;;;;;;;;;5058561;28;20083;-68
2021/03/28 15:20:29;;;;;;;1.17;0.20;;;;;;;;;;5057145;28;20448;-68
2021/03/28 15:23:00;;;;;;;0.13;0.13;;;;;;;;;;5055774;28;20041;-68
2021/03/28 15:25:26;;;;;;;0.17;0.17;;;;;;;;;;5057476;28;20270;-68
2021/03/28 15:27:55;;;;;;;0.22;0.22;;;;;;;;;;5063115;28;20406;-67
2021/03/28 15:30:42;;;;;;;1.35;0.50;;;;;;;;;;5063104;28;20029;-68
2021/03/28 15:33:10;;;;;;;0.00;0.00;;;;;;;;;;5053846;28;20017;-67
2021/03/28 15:35:55;;;;;;;0.10;0.10;;;;;;;;;;5052058;28;20025;-68
2021/03/28 15:38:21;;;;;;;0.00;0.00;;;;;;;;;;5069303;28;20618;-68
2021/03/28 15:40:53;;;;;;;1.77;1.35;;;;;;;;;;5066997;28;20020;-68
2021/03/28 15:43:19;;;;;;;2.63;1.00;;;;;;;;;;5066938;28;20031;-68
2021/03/28 15:45:51;;;;;;;0.20;0.20;;;;;;;;;;5067379;28;20028;-68
2021/03/28 15:48:36;;;;;;;0.10;0.10;;;;;;;;;;5069496;28;20413;-68
2021/03/28 15:51:05;;;;;;;1.50;0.20;;;;;;;;;;5056869;28;20126;-67
2021/03/28 15:53:50;;;;;;;0.80;0.20;;;;;;;;;;5070231;28;20035;-67
2021/03/28 15:56:19;;;;;;;0.30;0.30;;;;;;;;;;5066928;28;20116;-67
2021/03/28 15:58:49;;;;;;;3.13;0.65;;;;;;;;;;5066825;28;20052;-68
2021/03/28 16:01:35;;;;;;;1.42;0.45;;;;;;;;;;5064359;28;20033;-65
2021/03/28 16:04:20;;;;;;;0.00;0.00;;;;;;;;;;5055847;28;20526;-65
2021/03/28 16:07:05;;;;;;;0.73;0.73;;;;;;;;;;5065669;28;20417;-66
2021/03/28 16:09:33;;;;;;;0.10;0.10;;;;;;;;;;5050280;28;20112;-68
2021/03/28 16:12:00;;;;;;;0.30;0.30;;;;;;;;;;5060588;28;20079;-64
2021/03/28 16:14:35;;;;;;;0.00;0.00;;;;;;;;;;5066073;28;20032;-65
2021/03/28 16:17:13;;;;;;;0.32;0.22;;;;;;;;;;5066369;28;20087;-66
2021/03/28 16:19:39;;;;;;;2.15;0.85;;;;;;;;;;5067773;28;20051;-68
2021/03/28 16:22:24;;;;;;;3.25;0.50;;;;;;;;;;5066583;28;20100;-68
2021/03/28 16:25:04;;;;;;;0.30;0.20;;;;;;;;;;5060598;28;20036;-68
2021/03/28 16:27:33;;;;;;;0.45;0.45;;;;;;;;;;5052583;28;20024;-69
2021/03/28 16:30:18;;;;;;;0.20;0.20;;;;;;;;;;5068920;28;20134;-68
2021/03/28 16:33:03;;;;;;;0.20;0.20;;;;;;;;;;5066821;28;20016;-68
2021/03/28 16:35:29;;;;;;;0.45;0.40;;;;;;;;;;5059694;28;20025;-69
2021/03/28 16:38:01;;;;;;;0.10;0.10;;;;;;;;;;5063438;28;20032;-69
2021/03/28 16:40:31;;;;;;;0.30;0.30;;;;;;;;;;5065701;28;20040;-68
2021/03/28 16:43:03;;;;;;;0.00;0.00;;;;;;;;;;5064652;28;20494;-67
2021/03/28 16:45:39;;;;;;;0.22;0.10;;;;;;;;;;5054706;28;20029;-68
2021/03/28 16:48:14;;;;;;;0.52;0.45;;;;;;;;;;5068269;28;20079;-68
2021/03/28 16:50:49;;;;;;;0.10;0.10;;;;;;;;;;5066273;28;20076;-68
2021/03/28 16:53:31;;;;;;;1.35;0.65;;;;;;;;;;5066118;28;20509;-68
2021/03/28 16:55:57;;;;;;;1.65;0.25;;;;;;;;;;5065683;28;20551;-69
2021/03/28 16:58:34;;;;;;;0.40;0.40;;;;;;;;;;5065287;28;20446;-71
2021/03/28 17:01:10;;;;;;;0.20;0.20;;;;;;;;;;5067754;28;20362;-68
2021/03/28 17:03:39;;;;;;;0.35;0.35;;;;;;;;;;5055935;28;20038;-69
2021/03/28 17:06:05;;;;;;;7.65;3.10;;;;;;;;;;5066801;28;20449;-69
2021/03/28 17:08:37;;;;;;;0.00;0.00;;;;;;;;;;5056466;28;20079;-68
2021/03/28 17:11:22;;;;;;;0.40;0.32;;;;;;;;;;5064717;28;20028;-68
2021/03/28 17:13:50;;;;;;;4.13;0.57;;;;;;;;;;5065615;28;20482;-68
2021/03/28 17:16:23;;;;;;;4.40;0.10;;;;;;;;;;5067155;28;20802;-69
2021/03/28 17:18:54;;;;;;;0.10;0.10;;;;;;;;;;5057785;28;20044;-64
2021/03/28 17:21:20;;;;;;;0.10;0.10;;;;;;;;;;5061052;28;20132;-67
2021/03/28 17:23:46;;;;;;;0.10;0.10;;;;;;;;;;5068991;28;20036;-64
2021/03/28 17:26:18;;;;;;;1.05;0.85;;;;;;;;;;5067747;28;20020;-67
2021/03/28 17:28:46;;;;;;;0.22;0.20;;;;;;;;;;5067311;28;20050;-67
2021/03/28 17:31:17;;;;;;;5.65;5.15;;;;;;;;;;5066957;28;20429;-67
2021/03/28 17:33:43;;;;;;;0.90;0.90;;;;;;;;;;5067534;28;20483;-67
2021/03/28 17:38:52;;;;;;;0.30;0.10;;;;;;;;;;5068822;28;20055;-67
2021/03/28 17:41:37;;;;;;;1.98;0.70;;;;;;;;;;5066833;28;20043;-64
2021/03/28 17:44:03;;;;;;;0.10;0.10;;;;;;;;;;5063992;28;20023;-66
2021/03/28 17:46:44;;;;;;;0.20;0.20;;;;;;;;;;5068710;28;20812;-67
2021/03/28 17:49:29;;;;;;;0.30;0.20;;;;;;;;;;5057514;28;20024;-66
2021/03/28 17:51:55;;;;;;;0.30;0.20;;;;;;;;;;5067256;28;20028;-67
2021/03/28 17:54:32;;;;;;;0.20;0.20;;;;;;;;;;5068450;28;20079;-66
2021/03/28 17:56:59;;;;;;;0.30;0.20;;;;;;;;;;5066211;28;20182;-64
2021/03/28 17:59:36;;;;;;;0.20;0.20;;;;;;;;;;5068903;28;20059;-65
2021/03/28 18:02:03;;;;;;;0.32;0.32;;;;;;;;;;5066929;28;20045;-66
2021/03/28 18:04:37;;;;;;;1.90;0.55;;;;;;;;;;5068569;28;20112;-66
2021/03/28 18:07:13;;;;;;;1.45;0.88;;;;;;;;;;5065544;28;20398;-67
2021/03/28 18:09:45;;;;;;;1.95;0.20;;;;;;;;;;5067928;28;20093;-66
2021/03/28 18:12:25;;;;;;;0.10;0.10;;;;;;;;;;5069114;28;20542;-62
2021/03/28 18:14:59;;;;;;;0.63;0.63;;;;;;;;;;5070220;28;20039;-65
2021/03/28 18:17:26;;;;;;;0.20;0.20;;;;;;;;;;5069030;28;20032;-65
2021/03/28 18:20:10;;;;;;;4.95;0.80;;;;;;;;;;5067473;28;20458;-64
2021/03/28 18:22:38;;;;;;;1.30;0.57;;;;;;;;;;5067261;28;20496;-65
2021/03/28 18:25:04;;;;;;;0.20;0.20;;;;;;;;;;5067928;28;20020;-66
2021/03/28 18:27:33;;;;;;;0.38;0.30;;;;;;;;;;5068004;28;20031;-66
2021/03/28 18:30:28;;;;;;;0.00;0.00;;;;;;;;;;5061448;28;20024;-65
2021/03/28 18:33:02;;;;;;;0.10;0.10;;;;;;;;;;5025845;28;20069;-66
2021/03/28 18:35:30;;;;;;;1.45;0.55;;;;;;;;;;5026035;28;20462;-66
2021/03/28 18:38:01;;;;;;;0.52;0.52;;;;;;;;;;5026083;28;20129;-61
2021/03/28 18:40:48;;;;;;;0.10;0.10;;;;;;;;;;5025763;28;20435;-66
2021/03/28 18:43:14;;;;;;;0.30;0.30;;;;;;;;;;5025240;28;20048;-66
2021/03/28 18:45:42;;;;;;;0.10;0.10;;;;;;;;;;5025754;28;20026;-64
2021/03/28 18:48:18;;;;;;;0.35;0.30;;;;;;;;;;5026005;28;20479;-66
2021/03/28 18:50:45;;;;;;;2.38;2.17;;;;;;;;;;5024864;28;20447;-66
2021/03/28 18:53:13;;;;;;;0.25;0.10;;;;;;;;;;5025290;28;20097;-67
2021/03/28 18:55:44;;;;;;;2.50;0.95;;;;;;;;;;5025816;28;20060;-67
2021/03/28 18:58:22;;;;;;;0.20;0.20;;;;;;;;;;5027249;28;20084;-67
2021/03/28 19:00:48;;;;;;;0.15;0.15;;;;;;;;;;5025253;28;20033;-65
2021/03/28 19:03:17;;;;;;;0.20;0.20;;;;;;;;;;5022301;28;20029;-67
2021/03/28 19:05:48;;;;;;;0.35;0.30;;;;;;;;;;5025093;28;20041;-67
2021/03/28 19:08:33;;;;;;;0.43;0.40;;;;;;;;;;5026600;28;20035;-65
2021/03/28 19:11:01;;;;;;;0.13;0.13;;;;;;;;;;5068659;28;20032;-64
2021/03/28 19:13:28;;;;;;;0.10;0.10;;;;;;;;;;5068319;28;20037;-65
2021/03/28 19:15:55;;;;;;;0.10;0.10;;;;;;;;;;5066600;28;20461;-65
2021/03/28 19:18:21;;;;;;;0.10;0.10;;;;;;;;;;5066646;28;20021;-63
2021/03/28 19:20:49;;;;;;;4.68;0.75;;;;;;;;;;5064341;28;20085;-64
2021/03/28 19:23:31;;;;;;;0.10;0.10;;;;;;;;;;5066885;28;20627;-64
2021/03/28 19:25:57;;;;;;;0.10;0.10;;;;;;;;;;5066907;28;20043;-63
2021/03/28 19:28:33;;;;;;;0.15;0.15;;;;;;;;;;5066461;28;20394;-65
2021/03/28 19:31:17;;;;;;;0.10;0.10;;;;;;;;;;5066424;28;20104;-64
2021/03/28 19:33:44;;;;;;;0.10;0.10;;;;;;;;;;5066299;28;20398;-67
2021/03/28 19:36:12;;;;;;;0.10;0.10;;;;;;;;;;5070177;28;20118;-67
2021/03/28 19:38:45;;;;;;;0.10;0.10;;;;;;;;;;5068509;28;20040;-61
2021/03/28 19:41:14;;;;;;;0.10;0.10;;;;;;;;;;5066641;28;20037;-67
2021/03/28 19:44:09;;;;;;;0.10;0.10;;;;;;;;;;5067538;28;20573;-63
2021/03/28 19:46:59;;;;;;;0.10;0.10;;;;;;;;;;5066085;28;20028;-62
2021/03/28 19:49:27;;;;;;;0.10;0.10;;;;;;;;;;5067213;28;20474;-61
2021/03/28 19:52:02;;;;;;;0.10;0.10;;;;;;;;;;5067352;28;20078;-64
2021/03/28 19:54:28;;;;;;;;;;;;;;;;;;5063798;28;20077;-65
2021/03/28 19:56:54;;;;;;;;;;;;;;;;;;5062780;28;20410;-64
2021/03/28 19:59:20;;;;;;;;;;;;;;;;;;5069401;28;19916;-64
2021/03/28 20:01:46;;;;;;;;;;;;;;;;;;5069546;28;19908;-62
2021/03/28 20:04:17;;;;;;;;;;;;;;;;;;5069450;28;20374;-65
2021/03/28 20:06:44;;;;;;;0.10;0.10;;;;;;;;;;5066144;28;19909;-63
2021/03/28 20:09:16;;;;;;;0.30;0.30;;;;;;;;;;5069557;28;20402;-63
2021/03/28 20:11:43;;;;;;;0.10;0.10;;;;;;;;;;5068942;28;20526;-64
2021/03/28 20:14:10;;;;;;;0.10;0.10;;;;;;;;;;5066920;28;20494;-63
2021/03/28 20:16:37;;;;;;;0.10;0.10;;;;;;;;;;5066545;28;20477;-64
2021/03/28 20:19:08;;;;;;;0.10;0.10;;;;;;;;;;5066439;28;20036;-64
2021/03/28 20:21:38;;;;;;;0.10;0.10;;;;;;;;;;5066507;28;20495;-65
2021/03/28 20:24:10;;;;;;;0.85;0.85;;;;;;;;;;5069245;28;20036;-62
2021/03/28 20:26:53;;;;;;;0.10;0.10;;;;;;;;;;5069857;28;20037;-66
2021/03/28 20:29:22;;;;;;;0.10;0.10;;;;;;;;;;5066457;28;20081;-62
